sensor_id;sensor_type;location;lat;lon;timestamp;pressure;altitude;pressure_sealevel;temperature;humidity
59417;BME280;45222;52.458;20.914;2023-03-13T00:00:41;100177.25;;;-0.89;76.73
59417;BME280;45222;52.458;20.914;2023-03-13T00:04:35;100177.21;;;-0.83;76.29
59417;BME280;45222;52.458;20.914;2023-03-13T00:08:20;100170.58;;;-0.80;76.20
59417;BME280;45222;52.458;20.914;2023-03-13T00:12:07;100166.73;;;-0.82;76.22
59417;BME280;45222;52.458;20.914;2023-03-13T00:16:00;100166.39;;;-0.80;75.87
59417;BME280;45222;52.458;20.914;2023-03-13T00:19:45;100177.02;;;-0.78;76.08
59417;BME280;45222;52.458;20.914;2023-03-13T00:23:31;100180.29;;;-0.68;76.33
59417;BME280;45222;52.458;20.914;2023-03-13T00:27:16;100184.41;;;-0.59;76.20
59417;BME280;45222;52.458;20.914;2023-03-13T00:31:03;100183.64;;;-0.45;75.94
59417;BME280;45222;52.458;20.914;2023-03-13T00:34:49;100188.50;;;-0.40;75.67
59417;BME280;45222;52.458;20.914;2023-03-13T00:38:35;100184.64;;;-0.36;75.47
59417;BME280;45222;52.458;20.914;2023-03-13T00:42:22;100184.61;;;-0.34;75.22
59417;BME280;45222;52.458;20.914;2023-03-13T00:46:07;100187.77;;;-0.34;75.22
59417;BME280;45222;52.458;20.914;2023-03-13T00:49:53;100195.10;;;-0.34;75.07
59417;BME280;45222;52.458;20.914;2023-03-13T00:53:38;100194.23;;;-0.35;74.98
59417;BME280;45222;52.458;20.914;2023-03-13T00:57:23;100188.29;;;-0.33;74.70
59417;BME280;45222;52.458;20.914;2023-03-13T01:01:10;100187.22;;;-0.33;74.64
59417;BME280;45222;52.458;20.914;2023-03-13T01:04:56;100181.09;;;-0.30;74.80
59417;BME280;45222;52.458;20.914;2023-03-13T01:08:41;100175.98;;;-0.23;74.98
59417;BME280;45222;52.458;20.914;2023-03-13T01:12:26;100163.30;;;-0.11;75.33
59417;BME280;45222;52.458;20.914;2023-03-13T01:16:13;100149.24;;;-0.02;75.24
59417;BME280;45222;52.458;20.914;2023-03-13T01:19:59;100146.38;;;0.06;74.96
59417;BME280;45222;52.458;20.914;2023-03-13T01:23:44;100141.09;;;0.11;75.19
59417;BME280;45222;52.458;20.914;2023-03-13T01:27:30;100134.07;;;0.13;75.20
59417;BME280;45222;52.458;20.914;2023-03-13T01:31:17;100126.90;;;0.13;75.22
59417;BME280;45222;52.458;20.914;2023-03-13T01:35:03;100121.13;;;0.13;74.98
59417;BME280;45222;52.458;20.914;2023-03-13T01:38:49;100110.70;;;0.06;75.24
59417;BME280;45222;52.458;20.914;2023-03-13T01:42:49;100097.64;;;0.00;75.40
59417;BME280;45222;52.458;20.914;2023-03-13T01:46:35;100092.24;;;-0.01;75.17
59417;BME280;45222;52.458;20.914;2023-03-13T01:50:20;100094.48;;;0.03;75.46
59417;BME280;45222;52.458;20.914;2023-03-13T01:54:08;100094.42;;;0.08;75.78
59417;BME280;45222;52.458;20.914;2023-03-13T01:57:54;100093.47;;;0.17;76.13
59417;BME280;45222;52.458;20.914;2023-03-13T02:01:41;100091.17;;;0.18;76.15
59417;BME280;45222;52.458;20.914;2023-03-13T02:05:28;100080.12;;;0.22;76.06
59417;BME280;45222;52.458;20.914;2023-03-13T02:09:17;100066.61;;;0.25;75.75
59417;BME280;45222;52.458;20.914;2023-03-13T02:13:03;100073.80;;;0.23;75.77
59417;BME280;45222;52.458;20.914;2023-03-13T02:16:49;100073.11;;;0.23;75.46
59417;BME280;45222;52.458;20.914;2023-03-13T02:20:35;100074.54;;;0.21;75.44
59417;BME280;45222;52.458;20.914;2023-03-13T02:24:28;100076.98;;;0.22;75.97
59417;BME280;45222;52.458;20.914;2023-03-13T02:28:18;100065.60;;;0.22;76.27
59417;BME280;45222;52.458;20.914;2023-03-13T02:32:05;100067.26;;;0.31;76.55
59417;BME280;45222;52.458;20.914;2023-03-13T02:35:52;100067.30;;;0.42;76.73
59417;BME280;45222;52.458;20.914;2023-03-13T02:39:42;100067.20;;;0.51;76.53
59417;BME280;45222;52.458;20.914;2023-03-13T02:43:31;100062.35;;;0.61;76.29
59417;BME280;45222;52.458;20.914;2023-03-13T02:47:19;100064.23;;;0.64;76.08
59417;BME280;45222;52.458;20.914;2023-03-13T02:51:07;100070.33;;;0.67;75.84
59417;BME280;45222;52.458;20.914;2023-03-13T02:54:57;100071.34;;;0.69;75.75
59417;BME280;45222;52.458;20.914;2023-03-13T02:58:49;100088.13;;;0.70;75.18
59417;BME280;45222;52.458;20.914;2023-03-13T03:02:39;100083.54;;;0.73;75.06
59417;BME280;45222;52.458;20.914;2023-03-13T03:06:24;100076.33;;;0.76;75.10
59417;BME280;45222;52.458;20.914;2023-03-13T03:10:11;100076.03;;;0.86;75.57
59417;BME280;45222;52.458;20.914;2023-03-13T03:13:56;100077.00;;;0.91;75.45
59417;BME280;45222;52.458;20.914;2023-03-13T03:17:41;100059.60;;;0.97;75.13
59417;BME280;45222;52.458;20.914;2023-03-13T03:21:27;100056.22;;;1.00;75.13
59417;BME280;45222;52.458;20.914;2023-03-13T03:25:12;100061.27;;;1.01;74.84
59417;BME280;45222;52.458;20.914;2023-03-13T03:28:57;100063.59;;;0.99;74.93
59417;BME280;45222;52.458;20.914;2023-03-13T03:32:43;100051.69;;;0.98;74.80
59417;BME280;45222;52.458;20.914;2023-03-13T03:36:28;100050.27;;;1.01;75.09
59417;BME280;45222;52.458;20.914;2023-03-13T03:40:14;100046.36;;;1.04;75.28
59417;BME280;45222;52.458;20.914;2023-03-13T03:44:00;100044.17;;;1.10;75.59
59417;BME280;45222;52.458;20.914;2023-03-13T03:47:45;100046.50;;;1.18;75.60
59417;BME280;45222;52.458;20.914;2023-03-13T03:51:30;100037.54;;;1.20;75.33
59417;BME280;45222;52.458;20.914;2023-03-13T03:55:15;100033.83;;;1.23;75.19
59417;BME280;45222;52.458;20.914;2023-03-13T03:59:01;100027.39;;;1.20;75.09
59417;BME280;45222;52.458;20.914;2023-03-13T04:02:46;100020.70;;;1.21;75.06
59417;BME280;45222;52.458;20.914;2023-03-13T04:06:31;100017.89;;;1.22;75.26
59417;BME280;45222;52.458;20.914;2023-03-13T04:10:17;100012.20;;;1.27;75.64
59417;BME280;45222;52.458;20.914;2023-03-13T04:14:02;100013.17;;;1.32;75.67
59417;BME280;45222;52.458;20.914;2023-03-13T04:17:47;100006.52;;;1.32;75.58
59417;BME280;45222;52.458;20.914;2023-03-13T04:21:33;100008.60;;;1.33;75.36
59417;BME280;45222;52.458;20.914;2023-03-13T04:25:18;100011.13;;;1.28;75.65
59417;BME280;45222;52.458;20.914;2023-03-13T04:29:04;100008.36;;;1.26;75.66
59417;BME280;45222;52.458;20.914;2023-03-13T04:32:49;100001.19;;;1.26;76.05
59417;BME280;45222;52.458;20.914;2023-03-13T04:36:35;99996.25;;;1.28;76.42
59417;BME280;45222;52.458;20.914;2023-03-13T04:40:20;99990.05;;;1.32;76.83
59417;BME280;45222;52.458;20.914;2023-03-13T04:44:05;99989.31;;;1.34;76.82
59417;BME280;45222;52.458;20.914;2023-03-13T04:47:51;99985.96;;;1.35;76.87
59417;BME280;45222;52.458;20.914;2023-03-13T04:51:36;99988.29;;;1.32;77.11
59417;BME280;45222;52.458;20.914;2023-03-13T04:55:21;99986.80;;;1.27;77.02
59417;BME280;45222;52.458;20.914;2023-03-13T04:59:07;99992.84;;;1.22;77.09
59417;BME280;45222;52.458;20.914;2023-03-13T05:02:52;99985.88;;;1.19;77.04
59417;BME280;45222;52.458;20.914;2023-03-13T05:06:38;99979.61;;;1.17;77.55
59417;BME280;45222;52.458;20.914;2023-03-13T05:10:23;99972.43;;;1.17;77.99
59417;BME280;45222;52.458;20.914;2023-03-13T05:14:09;99977.42;;;1.23;78.65
59417;BME280;45222;52.458;20.914;2023-03-13T05:17:54;99969.45;;;1.28;78.83
59417;BME280;45222;52.458;20.914;2023-03-13T05:21:41;99956.30;;;1.29;79.08
59417;BME280;45222;52.458;20.914;2023-03-13T05:25:26;99951.05;;;1.28;78.91
59417;BME280;45222;52.458;20.914;2023-03-13T05:29:11;99957.24;;;1.24;79.19
59417;BME280;45222;52.458;20.914;2023-03-13T05:32:56;99964.48;;;1.21;79.18
59417;BME280;45222;52.458;20.914;2023-03-13T05:36:42;99960.73;;;1.26;79.33
59417;BME280;45222;52.458;20.914;2023-03-13T05:40:27;99957.87;;;1.29;79.57
59417;BME280;45222;52.458;20.914;2023-03-13T05:44:13;99961.98;;;1.34;79.82
59417;BME280;45222;52.458;20.914;2023-03-13T05:47:58;99973.63;;;1.40;80.39
59417;BME280;45222;52.458;20.914;2023-03-13T05:51:43;99979.11;;;1.46;80.65
59417;BME280;45222;52.458;20.914;2023-03-13T05:55:28;99969.02;;;1.53;80.64
59417;BME280;45222;52.458;20.914;2023-03-13T05:59:14;99963.38;;;1.54;81.40
59417;BME280;45222;52.458;20.914;2023-03-13T06:02:59;99956.00;;;1.55;81.37
59417;BME280;45222;52.458;20.914;2023-03-13T06:06:45;99951.01;;;1.61;80.86
59417;BME280;45222;52.458;20.914;2023-03-13T06:10:31;99955.58;;;1.69;81.02
59417;BME280;45222;52.458;20.914;2023-03-13T06:14:16;99960.73;;;1.76;81.24
59417;BME280;45222;52.458;20.914;2023-03-13T06:18:01;99949.88;;;1.83;81.54
59417;BME280;45222;52.458;20.914;2023-03-13T06:21:46;99948.79;;;1.85;81.72
59417;BME280;45222;52.458;20.914;2023-03-13T06:25:34;99944.86;;;1.89;81.67
59417;BME280;45222;52.458;20.914;2023-03-13T06:29:19;99953.48;;;1.96;81.44
59417;BME280;45222;52.458;20.914;2023-03-13T06:33:04;99948.35;;;1.99;81.24
59417;BME280;45222;52.458;20.914;2023-03-13T06:36:50;99946.17;;;2.02;81.52
59417;BME280;45222;52.458;20.914;2023-03-13T06:40:35;99945.11;;;2.11;81.80
59417;BME280;45222;52.458;20.914;2023-03-13T06:44:20;99945.82;;;2.20;82.31
59417;BME280;45222;52.458;20.914;2023-03-13T06:48:05;99941.12;;;2.26;82.55
59417;BME280;45222;52.458;20.914;2023-03-13T06:51:51;99934.84;;;2.32;82.63
59417;BME280;45222;52.458;20.914;2023-03-13T06:55:36;99935.44;;;2.37;82.38
59417;BME280;45222;52.458;20.914;2023-03-13T06:59:21;99934.02;;;2.38;82.49
59417;BME280;45222;52.458;20.914;2023-03-13T07:03:06;99933.94;;;2.43;82.80
59417;BME280;45222;52.458;20.914;2023-03-13T07:06:52;99935.17;;;2.50;83.42
59417;BME280;45222;52.458;20.914;2023-03-13T07:10:37;99932.22;;;2.56;83.51
59417;BME280;45222;52.458;20.914;2023-03-13T07:14:22;99928.80;;;2.60;83.61
59417;BME280;45222;52.458;20.914;2023-03-13T07:18:07;99929.45;;;2.62;83.54
59417;BME280;45222;52.458;20.914;2023-03-13T07:21:53;99938.43;;;2.69;83.93
59417;BME280;45222;52.458;20.914;2023-03-13T07:25:38;99937.91;;;2.76;84.05
59417;BME280;45222;52.458;20.914;2023-03-13T07:29:23;99932.41;;;2.86;84.14
59417;BME280;45222;52.458;20.914;2023-03-13T07:33:09;99917.41;;;2.96;84.14
59417;BME280;45222;52.458;20.914;2023-03-13T07:36:54;99904.16;;;3.06;83.89
59417;BME280;45222;52.458;20.914;2023-03-13T07:40:39;99903.10;;;3.13;83.97
59417;BME280;45222;52.458;20.914;2023-03-13T07:44:31;99901.53;;;3.20;83.64
59417;BME280;45222;52.458;20.914;2023-03-13T07:48:16;99895.11;;;3.30;83.66
59417;BME280;45222;52.458;20.914;2023-03-13T07:52:01;99893.98;;;3.40;83.88
59417;BME280;45222;52.458;20.914;2023-03-13T07:55:53;99888.20;;;3.53;83.97
59417;BME280;45222;52.458;20.914;2023-03-13T07:59:38;99883.52;;;3.63;83.83
59417;BME280;45222;52.458;20.914;2023-03-13T08:03:24;99877.92;;;3.68;83.69
59417;BME280;45222;52.458;20.914;2023-03-13T08:07:10;99870.15;;;3.82;83.40
59417;BME280;45222;52.458;20.914;2023-03-13T08:11:00;99870.95;;;4.03;83.29
59417;BME280;45222;52.458;20.914;2023-03-13T08:14:45;99867.80;;;4.26;83.28
59417;BME280;45222;52.458;20.914;2023-03-13T08:18:30;99868.77;;;4.52;83.19
59417;BME280;45222;52.458;20.914;2023-03-13T08:22:18;99867.97;;;4.76;82.98
59417;BME280;45222;52.458;20.914;2023-03-13T08:26:05;99872.04;;;4.98;82.40
59417;BME280;45222;52.458;20.914;2023-03-13T08:29:51;99873.23;;;5.14;81.77
59417;BME280;45222;52.458;20.914;2023-03-13T08:33:36;99872.84;;;5.26;81.60
59417;BME280;45222;52.458;20.914;2023-03-13T08:37:22;99867.55;;;5.31;81.40
59417;BME280;45222;52.458;20.914;2023-03-13T08:41:07;99857.35;;;5.35;81.17
59417;BME280;45222;52.458;20.914;2023-03-13T08:44:52;99853.05;;;5.38;80.60
59417;BME280;45222;52.458;20.914;2023-03-13T08:48:37;99847.90;;;5.34;80.38
59417;BME280;45222;52.458;20.914;2023-03-13T08:52:23;99840.56;;;5.32;80.49
59417;BME280;45222;52.458;20.914;2023-03-13T08:56:10;99832.17;;;5.34;80.48
59417;BME280;45222;52.458;20.914;2023-03-13T08:59:55;99827.29;;;5.43;80.45
59417;BME280;45222;52.458;20.914;2023-03-13T09:03:41;99815.92;;;5.55;80.70
59417;BME280;45222;52.458;20.914;2023-03-13T09:07:27;99809.17;;;5.70;80.27
59417;BME280;45222;52.458;20.914;2023-03-13T09:11:13;99797.49;;;5.85;79.96
59417;BME280;45222;52.458;20.914;2023-03-13T09:14:59;99793.59;;;6.05;79.60
59417;BME280;45222;52.458;20.914;2023-03-13T09:18:44;99780.55;;;6.22;79.15
59417;BME280;45222;52.458;20.914;2023-03-13T09:22:30;99773.90;;;6.39;78.88
59417;BME280;45222;52.458;20.914;2023-03-13T09:26:16;99769.98;;;6.61;78.89
59417;BME280;45222;52.458;20.914;2023-03-13T09:30:01;99760.95;;;6.83;78.33
59417;BME280;45222;52.458;20.914;2023-03-13T09:33:47;99758.42;;;7.01;77.79
59417;BME280;45222;52.458;20.914;2023-03-13T09:37:33;99758.92;;;7.17;77.48
59417;BME280;45222;52.458;20.914;2023-03-13T09:41:25;99757.68;;;7.37;77.24
59417;BME280;45222;52.458;20.914;2023-03-13T09:45:14;99750.45;;;7.61;76.77
59417;BME280;45222;52.458;20.914;2023-03-13T09:49:03;99748.44;;;7.77;76.34
59417;BME280;45222;52.458;20.914;2023-03-13T09:52:52;99743.48;;;7.96;75.80
59417;BME280;45222;52.458;20.914;2023-03-13T09:56:46;99731.97;;;8.11;75.51
59417;BME280;45222;52.458;20.914;2023-03-13T10:00:41;99724.13;;;8.30;75.20
59417;BME280;45222;52.458;20.914;2023-03-13T10:04:34;99718.72;;;8.46;75.17
59417;BME280;45222;52.458;20.914;2023-03-13T10:08:24;99719.04;;;8.58;74.45
59417;BME280;45222;52.458;20.914;2023-03-13T10:12:16;99720.08;;;8.66;73.94
59417;BME280;45222;52.458;20.914;2023-03-13T10:16:06;99714.72;;;8.73;74.37
59417;BME280;45222;52.458;20.914;2023-03-13T10:19:57;99710.78;;;8.84;74.04
59417;BME280;45222;52.458;20.914;2023-03-13T10:23:52;99707.55;;;8.99;73.91
59417;BME280;45222;52.458;20.914;2023-03-13T10:27:48;99701.40;;;9.15;73.30
59417;BME280;45222;52.458;20.914;2023-03-13T10:31:35;99694.85;;;9.28;73.21
59417;BME280;45222;52.458;20.914;2023-03-13T10:35:22;99691.11;;;9.38;73.06
59417;BME280;45222;52.458;20.914;2023-03-13T10:39:15;99687.30;;;9.49;73.10
59417;BME280;45222;52.458;20.914;2023-03-13T10:43:03;99677.64;;;9.54;73.19
59417;BME280;45222;52.458;20.914;2023-03-13T10:46:49;99675.63;;;9.45;73.34
59417;BME280;45222;52.458;20.914;2023-03-13T10:50:35;99674.46;;;9.41;73.32
59417;BME280;45222;52.458;20.914;2023-03-13T10:54:23;99667.21;;;9.34;73.75
59417;BME280;45222;52.458;20.914;2023-03-13T10:58:17;99663.14;;;9.37;74.13
59417;BME280;45222;52.458;20.914;2023-03-13T11:02:12;99662.73;;;9.48;74.85
59417;BME280;45222;52.458;20.914;2023-03-13T11:06:03;99646.40;;;9.57;74.62
59417;BME280;45222;52.458;20.914;2023-03-13T11:09:57;99636.32;;;9.57;74.72
59417;BME280;45222;52.458;20.914;2023-03-13T11:13:43;99626.09;;;9.62;74.99
59417;BME280;45222;52.458;20.914;2023-03-13T11:17:35;99618.39;;;9.69;75.31
59417;BME280;45222;52.458;20.914;2023-03-13T11:21:29;99606.17;;;9.81;74.79
59417;BME280;45222;52.458;20.914;2023-03-13T11:25:22;99592.27;;;9.85;74.89
59417;BME280;45222;52.458;20.914;2023-03-13T11:29:16;99584.66;;;9.94;74.83
59417;BME280;45222;52.458;20.914;2023-03-13T11:33:09;99576.00;;;10.11;74.81
59417;BME280;45222;52.458;20.914;2023-03-13T11:37:01;99563.55;;;10.33;74.11
59417;BME280;45222;52.458;20.914;2023-03-13T11:40:57;99551.89;;;10.55;74.01
59417;BME280;45222;52.458;20.914;2023-03-13T11:45:00;99541.54;;;10.79;73.18
59417;BME280;45222;52.458;20.914;2023-03-13T11:49:28;99530.64;;;11.03;72.17
59417;BME280;45222;52.458;20.914;2023-03-13T11:53:34;99521.67;;;11.18;70.39
59417;BME280;45222;52.458;20.914;2023-03-13T11:57:26;99513.84;;;11.18;69.38
59417;BME280;45222;52.458;20.914;2023-03-13T12:01:16;99507.59;;;11.18;68.61
59417;BME280;45222;52.458;20.914;2023-03-13T12:05:06;99505.47;;;11.20;67.80
59417;BME280;45222;52.458;20.914;2023-03-13T12:08:56;99506.25;;;11.17;66.99
59417;BME280;45222;52.458;20.914;2023-03-13T12:12:44;99504.52;;;11.10;67.62
59417;BME280;45222;52.458;20.914;2023-03-13T12:16:38;99499.98;;;11.09;67.83
59417;BME280;45222;52.458;20.914;2023-03-13T12:20:27;99496.16;;;11.10;67.67
59417;BME280;45222;52.458;20.914;2023-03-13T12:24:24;99487.58;;;11.08;67.03
59417;BME280;45222;52.458;20.914;2023-03-13T12:28:28;99487.02;;;11.00;67.26
59417;BME280;45222;52.458;20.914;2023-03-13T12:32:21;99488.25;;;10.92;67.57
59417;BME280;45222;52.458;20.914;2023-03-13T12:36:12;99477.63;;;10.83;67.64
59417;BME280;45222;52.458;20.914;2023-03-13T12:40:09;99473.96;;;10.73;67.80
59417;BME280;45222;52.458;20.914;2023-03-13T12:43:56;99471.82;;;10.65;68.61
59417;BME280;45222;52.458;20.914;2023-03-13T12:47:56;99469.59;;;10.58;68.73
59417;BME280;45222;52.458;20.914;2023-03-13T12:52:02;99465.23;;;10.54;69.58
59417;BME280;45222;52.458;20.914;2023-03-13T12:56:02;99464.38;;;10.50;70.25
59417;BME280;45222;52.458;20.914;2023-03-13T12:59:55;99460.61;;;10.42;70.65
59417;BME280;45222;52.458;20.914;2023-03-13T13:03:51;99455.61;;;10.33;71.21
59417;BME280;45222;52.458;20.914;2023-03-13T13:07:37;99444.05;;;10.25;71.64
59417;BME280;45222;52.458;20.914;2023-03-13T13:11:53;99439.48;;;10.16;72.40
59417;BME280;45222;52.458;20.914;2023-03-13T13:15:41;99434.26;;;10.11;72.91
59417;BME280;45222;52.458;20.914;2023-03-13T13:19:45;99431.10;;;10.07;73.63
59417;BME280;45222;52.458;20.914;2023-03-13T13:23:37;99421.73;;;10.06;74.14
59417;BME280;45222;52.458;20.914;2023-03-13T13:27:47;99415.69;;;10.01;74.74
59417;BME280;45222;52.458;20.914;2023-03-13T13:31:56;99412.84;;;9.95;74.90
59417;BME280;45222;52.458;20.914;2023-03-13T13:35:43;99403.00;;;9.90;75.47
59417;BME280;45222;52.458;20.914;2023-03-13T13:39:39;99399.05;;;9.85;76.27
59417;BME280;45222;52.458;20.914;2023-03-13T13:43:30;99390.70;;;9.83;76.94
59417;BME280;45222;52.458;20.914;2023-03-13T13:47:23;99385.14;;;9.75;77.39
59417;BME280;45222;52.458;20.914;2023-03-13T13:51:24;99387.77;;;9.66;77.09
59417;BME280;45222;52.458;20.914;2023-03-13T13:59:28;99383.20;;;9.45;78.32
59417;BME280;45222;52.458;20.914;2023-03-13T14:03:21;99378.26;;;9.38;78.61
59417;BME280;45222;52.458;20.914;2023-03-13T14:07:14;99372.24;;;9.35;79.33
59417;BME280;45222;52.458;20.914;2023-03-13T14:11:23;99359.64;;;9.32;79.97
59417;BME280;45222;52.458;20.914;2023-03-13T14:15:16;99353.08;;;9.26;80.34
59417;BME280;45222;52.458;20.914;2023-03-13T14:19:02;99348.96;;;9.24;80.38
59417;BME280;45222;52.458;20.914;2023-03-13T14:22:50;99343.52;;;9.23;80.83
59417;BME280;45222;52.458;20.914;2023-03-13T14:26:42;99343.06;;;9.24;81.37
59417;BME280;45222;52.458;20.914;2023-03-13T14:30:27;99342.41;;;9.23;81.13
59417;BME280;45222;52.458;20.914;2023-03-13T14:34:13;99328.01;;;9.21;81.18
59417;BME280;45222;52.458;20.914;2023-03-13T14:38:02;99313.36;;;9.20;81.44
59417;BME280;45222;52.458;20.914;2023-03-13T14:41:46;99305.77;;;9.19;81.55
59417;BME280;45222;52.458;20.914;2023-03-13T14:45:34;99298.13;;;9.16;81.93
59417;BME280;45222;52.458;20.914;2023-03-13T14:49:22;99293.80;;;9.14;82.20
59417;BME280;45222;52.458;20.914;2023-03-13T14:53:15;99287.64;;;9.14;82.02
59417;BME280;45222;52.458;20.914;2023-03-13T14:57:12;99279.57;;;9.12;81.68
59417;BME280;45222;52.458;20.914;2023-03-13T15:01:12;99279.98;;;9.08;81.89
59417;BME280;45222;52.458;20.914;2023-03-13T15:04:59;99281.91;;;9.06;82.43
59417;BME280;45222;52.458;20.914;2023-03-13T15:08:46;99280.74;;;9.04;82.49
59417;BME280;45222;52.458;20.914;2023-03-13T15:12:41;99280.65;;;9.06;82.61
59417;BME280;45222;52.458;20.914;2023-03-13T15:16:28;99276.20;;;9.06;82.92
59417;BME280;45222;52.458;20.914;2023-03-13T15:20:14;99271.42;;;9.03;82.80
59417;BME280;45222;52.458;20.914;2023-03-13T15:24:01;99262.32;;;8.98;82.71
59417;BME280;45222;52.458;20.914;2023-03-13T15:27:51;99262.61;;;8.96;82.75
59417;BME280;45222;52.458;20.914;2023-03-13T15:31:36;99257.67;;;8.96;82.96
59417;BME280;45222;52.458;20.914;2023-03-13T15:35:26;99252.65;;;8.97;83.04
59417;BME280;45222;52.458;20.914;2023-03-13T15:39:13;99248.65;;;8.95;83.06
59417;BME280;45222;52.458;20.914;2023-03-13T15:42:59;99249.30;;;8.90;83.15
59417;BME280;45222;52.458;20.914;2023-03-13T15:46:44;99247.45;;;8.89;82.93
59417;BME280;45222;52.458;20.914;2023-03-13T15:50:31;99249.20;;;8.89;83.04
59417;BME280;45222;52.458;20.914;2023-03-13T15:54:16;99248.59;;;8.91;83.18
59417;BME280;45222;52.458;20.914;2023-03-13T15:58:02;99249.55;;;8.92;83.07
59417;BME280;45222;52.458;20.914;2023-03-13T16:01:47;99249.51;;;8.93;82.89
59417;BME280;45222;52.458;20.914;2023-03-13T16:05:33;99250.25;;;8.95;82.84
59417;BME280;45222;52.458;20.914;2023-03-13T16:09:18;99242.98;;;8.98;82.62
59417;BME280;45222;52.458;20.914;2023-03-13T16:13:03;99246.98;;;8.99;82.32
59417;BME280;45222;52.458;20.914;2023-03-13T16:16:49;99244.63;;;9.01;82.12
59417;BME280;45222;52.458;20.914;2023-03-13T16:20:36;99237.38;;;9.03;81.89
59417;BME280;45222;52.458;20.914;2023-03-13T16:24:21;99237.13;;;9.07;81.63
59417;BME280;45222;52.458;20.914;2023-03-13T16:28:06;99244.04;;;9.07;81.39
59417;BME280;45222;52.458;20.914;2023-03-13T16:31:51;99247.25;;;9.10;81.23
59417;BME280;45222;52.458;20.914;2023-03-13T16:35:37;99244.48;;;9.14;80.92
59417;BME280;45222;52.458;20.914;2023-03-13T16:39:23;99241.27;;;9.15;80.65
59417;BME280;45222;52.458;20.914;2023-03-13T16:43:11;99243.91;;;9.18;80.54
59417;BME280;45222;52.458;20.914;2023-03-13T16:46:56;99242.32;;;9.21;80.41
59417;BME280;45222;52.458;20.914;2023-03-13T16:50:42;99241.37;;;9.22;80.23
59417;BME280;45222;52.458;20.914;2023-03-13T16:54:31;99243.83;;;9.23;80.02
59417;BME280;45222;52.458;20.914;2023-03-13T16:58:17;99247.50;;;9.23;79.83
59417;BME280;45222;52.458;20.914;2023-03-13T17:02:03;99247.35;;;9.26;79.88
59417;BME280;45222;52.458;20.914;2023-03-13T17:05:48;99253.14;;;9.27;79.35
59417;BME280;45222;52.458;20.914;2023-03-13T17:09:34;99251.96;;;9.29;79.08
59417;BME280;45222;52.458;20.914;2023-03-13T17:13:19;99247.65;;;9.33;79.32
59417;BME280;45222;52.458;20.914;2023-03-13T17:17:10;99249.40;;;9.36;79.15
59417;BME280;45222;52.458;20.914;2023-03-13T17:20:55;99255.33;;;9.37;78.96
59417;BME280;45222;52.458;20.914;2023-03-13T17:24:41;99248.63;;;9.37;78.78
59417;BME280;45222;52.458;20.914;2023-03-13T17:28:26;99252.21;;;9.39;78.62
59417;BME280;45222;52.458;20.914;2023-03-13T17:32:13;99254.79;;;9.44;78.49
59417;BME280;45222;52.458;20.914;2023-03-13T17:35:58;99251.91;;;9.44;78.29
59417;BME280;45222;52.458;20.914;2023-03-13T17:39:44;99249.02;;;9.45;78.10
59417;BME280;45222;52.458;20.914;2023-03-13T17:43:30;99249.54;;;9.48;78.09
59417;BME280;45222;52.458;20.914;2023-03-13T17:47:18;99248.53;;;9.50;77.95
59417;BME280;45222;52.458;20.914;2023-03-13T17:51:07;99248.88;;;9.50;77.60
59417;BME280;45222;52.458;20.914;2023-03-13T17:54:53;99241.39;;;9.53;77.47
59417;BME280;45222;52.458;20.914;2023-03-13T17:58:38;99243.01;;;9.59;77.24
59417;BME280;45222;52.458;20.914;2023-03-13T18:02:24;99243.34;;;9.62;77.12
59417;BME280;45222;52.458;20.914;2023-03-13T18:06:21;99251.20;;;9.64;76.65
59417;BME280;45222;52.458;20.914;2023-03-13T18:10:13;99250.25;;;9.69;76.50
59417;BME280;45222;52.458;20.914;2023-03-13T18:14:00;99241.83;;;9.72;76.37
59417;BME280;45222;52.458;20.914;2023-03-13T18:17:47;99244.77;;;9.76;76.16
59417;BME280;45222;52.458;20.914;2023-03-13T18:21:33;99245.02;;;9.75;76.03
59417;BME280;45222;52.458;20.914;2023-03-13T18:25:19;99242.91;;;9.75;75.88
59417;BME280;45222;52.458;20.914;2023-03-13T18:29:11;99245.73;;;9.78;75.78
59417;BME280;45222;52.458;20.914;2023-03-13T18:32:57;99239.61;;;9.79;75.68
59417;BME280;45222;52.458;20.914;2023-03-13T18:36:43;99238.21;;;9.79;75.45
59417;BME280;45222;52.458;20.914;2023-03-13T18:40:29;99236.14;;;9.81;75.56
59417;BME280;45222;52.458;20.914;2023-03-13T18:44:15;99228.34;;;9.84;75.35
59417;BME280;45222;52.458;20.914;2023-03-13T18:48:02;99224.77;;;9.84;75.07
59417;BME280;45222;52.458;20.914;2023-03-13T18:51:49;99218.20;;;9.84;75.03
59417;BME280;45222;52.458;20.914;2023-03-13T18:55:35;99220.81;;;9.82;74.83
59417;BME280;45222;52.458;20.914;2023-03-13T18:59:21;99217.20;;;9.83;74.87
59417;BME280;45222;52.458;20.914;2023-03-13T19:03:07;99223.04;;;9.86;74.84
59417;BME280;45222;52.458;20.914;2023-03-13T19:06:52;99223.28;;;9.88;74.50
59417;BME280;45222;52.458;20.914;2023-03-13T19:10:38;99219.79;;;9.87;74.43
59417;BME280;45222;52.458;20.914;2023-03-13T19:14:23;99217.87;;;9.84;74.29
59417;BME280;45222;52.458;20.914;2023-03-13T19:18:13;99213.52;;;9.82;74.44
59417;BME280;45222;52.458;20.914;2023-03-13T19:22:10;99214.34;;;9.83;74.41
59417;BME280;45222;52.458;20.914;2023-03-13T19:25:56;99217.70;;;9.84;74.13
59417;BME280;45222;52.458;20.914;2023-03-13T19:29:42;99221.52;;;9.82;74.18
59417;BME280;45222;52.458;20.914;2023-03-13T19:33:28;99216.73;;;9.79;73.96
59417;BME280;45222;52.458;20.914;2023-03-13T19:37:15;99217.92;;;9.79;73.78
59417;BME280;45222;52.458;20.914;2023-03-13T19:41:02;99215.70;;;9.81;73.59
59417;BME280;45222;52.458;20.914;2023-03-13T19:44:51;99216.87;;;9.82;73.20
59417;BME280;45222;52.458;20.914;2023-03-13T19:48:42;99213.14;;;9.82;73.03
59417;BME280;45222;52.458;20.914;2023-03-13T19:52:29;99202.91;;;9.81;72.65
59417;BME280;45222;52.458;20.914;2023-03-13T19:56:19;99207.29;;;9.79;72.71
59417;BME280;45222;52.458;20.914;2023-03-13T20:00:09;99207.77;;;9.80;72.53
59417;BME280;45222;52.458;20.914;2023-03-13T20:03:57;99210.20;;;9.84;72.25